createdAt,value
2023-05-14T00:01:17.485Z,11.18
2023-05-14T00:03:45.607Z,12.23
2023-05-14T00:06:13.742Z,12.80
2023-05-14T00:08:41.288Z,11.88
2023-05-14T00:11:11.688Z,14.90
2023-05-14T00:13:38.886Z,11.20
2023-05-14T00:16:06.360Z,11.15
2023-05-14T00:18:33.666Z,11.77
2023-05-14T00:21:00.858Z,12.82
2023-05-14T00:23:28.545Z,9.70
2023-05-14T00:25:56.686Z,11.35
2023-05-14T00:28:24.336Z,13.32
2023-05-14T00:30:52.240Z,13.98
2023-05-14T00:33:19.764Z,10.45
2023-05-14T00:35:47.259Z,12.07
2023-05-14T00:38:23.448Z,9.50
2023-05-14T00:40:51.957Z,11.73
2023-05-14T00:43:23.411Z,12.00
2023-05-14T00:45:53.307Z,11.55
2023-05-14T00:48:21.917Z,13.43
2023-05-14T00:50:51.156Z,10.85
2023-05-14T00:53:20.733Z,10.85
2023-05-14T00:55:50.430Z,7.97
2023-05-14T00:58:19.383Z,8.10
2023-05-14T01:00:46.643Z,8.85
2023-05-14T01:03:14.607Z,8.02
2023-05-14T01:06:01.119Z,8.27
2023-05-14T01:09:14.554Z,7.22
2023-05-14T01:12:12.543Z,6.43
2023-05-14T01:15:11.585Z,9.43
2023-05-14T01:20:15.501Z,8.23
2023-05-14T01:22:42.694Z,8.17
2023-05-14T01:25:10.511Z,5.90
2023-05-14T01:28:17.957Z,9.00
2023-05-14T01:31:14.133Z,7.13
2023-05-14T01:33:44.547Z,7.47
2023-05-14T01:36:12.692Z,6.70
2023-05-14T01:38:45.479Z,5.80
2023-05-14T01:41:14.522Z,9.10
2023-05-14T01:43:42.426Z,5.47
2023-05-14T01:46:09.797Z,8.27
2023-05-14T01:48:37.852Z,10.05
2023-05-14T01:51:05.054Z,6.18
2023-05-14T01:53:34.798Z,7.45
2023-05-14T01:56:02.455Z,5.70
2023-05-14T01:58:29.584Z,6.53
2023-05-14T02:00:56.786Z,7.07
2023-05-14T02:03:24.322Z,6.35
2023-05-14T02:05:52.340Z,5.70
2023-05-14T02:08:19.800Z,8.63
2023-05-14T02:10:47.002Z,7.47
2023-05-14T02:13:15.121Z,7.85
2023-05-14T02:15:42.401Z,11.57
2023-05-14T02:18:09.637Z,8.27
2023-05-14T02:20:36.831Z,7.63
2023-05-14T02:23:04.072Z,7.25
2023-05-14T02:25:31.562Z,6.18
2023-05-14T02:27:58.833Z,5.50
2023-05-14T02:30:26.111Z,8.10
2023-05-14T02:32:53.512Z,8.32
2023-05-14T02:35:21.398Z,10.05
2023-05-14T02:37:48.933Z,6.10
2023-05-14T02:40:16.241Z,8.13
2023-05-14T02:42:43.475Z,7.13
2023-05-14T02:45:11.048Z,6.25
2023-05-14T02:47:38.455Z,7.72
2023-05-14T02:50:06.906Z,8.18
2023-05-14T02:52:34.231Z,7.43
2023-05-14T02:55:02.319Z,7.75
2023-05-14T02:57:29.519Z,11.00
2023-05-14T02:59:56.681Z,8.63
2023-05-14T03:02:24.368Z,9.20
2023-05-14T03:04:52.098Z,13.15
2023-05-14T03:07:19.436Z,11.27
2023-05-14T03:09:46.644Z,17.88
2023-05-14T03:12:14.415Z,12.30
2023-05-14T03:14:41.570Z,10.88
2023-05-14T03:17:08.855Z,15.25
2023-05-14T03:19:36.142Z,11.02
2023-05-14T03:22:03.563Z,12.10
2023-05-14T03:24:31.526Z,10.77
2023-05-14T03:26:58.767Z,10.30
2023-05-14T03:29:25.994Z,11.77
2023-05-14T03:31:54.317Z,14.88
2023-05-14T03:34:21.497Z,12.43
2023-05-14T03:36:48.748Z,11.48
2023-05-14T03:39:19.623Z,10.95
2023-05-14T03:41:48.097Z,13.02
2023-05-14T03:44:15.556Z,15.73
2023-05-14T03:46:42.781Z,9.90
2023-05-14T03:49:10.857Z,14.07
2023-05-14T03:51:38.072Z,12.82
2023-05-14T03:54:06.732Z,13.47
2023-05-14T03:56:34.083Z,11.90
2023-05-14T03:59:01.432Z,14.13
2023-05-14T04:01:28.831Z,13.10
2023-05-14T04:03:58.936Z,10.52
2023-05-14T04:06:27.531Z,9.73
2023-05-14T04:08:55.495Z,13.65
2023-05-14T04:11:23.277Z,10.40
2023-05-14T04:13:50.533Z,12.57
2023-05-14T04:16:17.892Z,15.07
2023-05-14T04:18:45.112Z,14.15
2023-05-14T04:21:12.648Z,13.52
2023-05-14T04:23:40.369Z,13.02
2023-05-14T04:26:07.854Z,10.95
2023-05-14T04:28:35.731Z,14.27
2023-05-14T04:31:03.880Z,13.50
2023-05-14T04:33:31.246Z,10.50
2023-05-14T04:35:58.536Z,10.25
2023-05-14T04:38:29.465Z,11.93
2023-05-14T04:40:56.966Z,12.38
2023-05-14T04:43:24.378Z,9.88
2023-05-14T04:45:52.552Z,10.98
2023-05-14T04:48:19.981Z,13.53
2023-05-14T04:50:47.187Z,17.48
2023-05-14T04:53:14.326Z,12.63
2023-05-14T04:55:41.612Z,10.70
2023-05-14T04:58:08.853Z,10.20
2023-05-14T05:00:36.026Z,9.70
2023-05-14T05:03:04.074Z,8.50
2023-05-14T05:05:31.824Z,11.25
2023-05-14T05:07:59.231Z,10.27
2023-05-14T05:10:26.798Z,9.75
2023-05-14T05:12:54.167Z,10.20
2023-05-14T05:15:21.677Z,10.07
2023-05-14T05:17:49.465Z,10.32
2023-05-14T05:20:16.977Z,13.05
2023-05-14T05:22:44.684Z,11.50
2023-05-14T05:25:12.930Z,9.45
2023-05-14T05:27:40.930Z,7.23
2023-05-14T05:30:09.499Z,11.60
2023-05-14T05:32:37.304Z,11.43
2023-05-14T05:35:05.171Z,15.45
2023-05-14T05:37:32.417Z,12.23
2023-05-14T05:40:00.083Z,8.85
2023-05-14T05:42:27.391Z,12.10
2023-05-14T05:44:54.808Z,11.07
2023-05-14T05:47:22.188Z,13.37
2023-05-14T05:49:49.716Z,9.40
2023-05-14T05:52:16.927Z,9.38
2023-05-14T05:54:44.213Z,9.90
2023-05-14T05:57:11.376Z,10.30
2023-05-14T05:59:38.705Z,11.52
2023-05-14T06:02:07.030Z,9.15
2023-05-14T06:04:35.135Z,8.55
2023-05-14T06:07:02.659Z,9.93
2023-05-14T06:09:30.659Z,9.85
2023-05-14T06:11:58.814Z,11.70
2023-05-14T06:14:26.212Z,9.23
2023-05-14T06:16:53.668Z,19.17
2023-05-14T06:19:23.258Z,11.77
2023-05-14T06:21:51.025Z,14.15
2023-05-14T06:24:20.192Z,13.60
2023-05-14T06:26:49.365Z,10.27
2023-05-14T06:29:17.389Z,12.38
2023-05-14T06:31:44.980Z,12.25
2023-05-14T06:34:12.469Z,12.85
2023-05-14T06:36:41.886Z,8.73
2023-05-14T06:39:08.975Z,13.65
2023-05-14T06:41:38.832Z,14.30
2023-05-14T06:44:06.592Z,10.70
2023-05-14T06:46:33.796Z,11.07
2023-05-14T06:49:00.927Z,9.43
2023-05-14T06:51:30.675Z,11.82
2023-05-14T06:53:58.075Z,10.43
2023-05-14T06:56:25.255Z,10.02
2023-05-14T06:58:52.390Z,10.35
2023-05-14T07:01:19.894Z,12.55
2023-05-14T07:03:49.066Z,12.88
2023-05-14T07:06:16.263Z,9.93
2023-05-14T07:08:47.663Z,13.70
2023-05-14T07:11:15.986Z,11.45
2023-05-14T07:13:43.331Z,8.63
2023-05-14T07:16:10.500Z,11.18
2023-05-14T07:18:38.013Z,11.52
2023-05-14T07:21:06.677Z,13.88
2023-05-14T07:23:36.774Z,12.63
2023-05-14T07:26:06.675Z,11.30
2023-05-14T07:28:35.596Z,8.33
2023-05-14T07:33:36.906Z,9.82
2023-05-14T07:36:05.289Z,11.25
2023-05-14T07:38:33.181Z,10.02
2023-05-14T07:41:00.558Z,11.02
2023-05-14T07:43:27.860Z,11.27
2023-05-14T07:45:55.892Z,9.95
2023-05-14T07:48:23.264Z,10.02
2023-05-14T07:50:51.952Z,10.07
2023-05-14T07:53:19.224Z,9.68
2023-05-14T07:55:48.343Z,11.00
2023-05-14T08:00:43.321Z,11.30
2023-05-14T08:03:11.012Z,10.70
2023-05-14T08:05:38.776Z,15.40
2023-05-14T08:08:06.749Z,12.80
2023-05-14T08:10:34.522Z,10.32
2023-05-14T08:13:01.948Z,11.23
2023-05-14T08:15:32.296Z,11.18
2023-05-14T08:18:03.426Z,12.45
2023-05-14T08:20:38.109Z,11.20
2023-05-14T08:23:05.489Z,16.42
2023-05-14T08:25:33.481Z,11.85
2023-05-14T08:28:01.729Z,11.82
2023-05-14T08:30:29.253Z,13.27
2023-05-14T08:32:58.262Z,9.55
2023-05-14T08:35:25.887Z,12.02
2023-05-14T08:37:53.202Z,10.07
2023-05-14T08:40:20.674Z,10.07
2023-05-14T08:42:51.882Z,10.82
2023-05-14T08:45:22.123Z,12.68
2023-05-14T08:47:51.688Z,10.38
2023-05-14T08:50:23.673Z,12.95
2023-05-14T08:52:53.000Z,11.32
2023-05-14T08:57:47.440Z,13.00
2023-05-14T09:00:20.421Z,10.20
2023-05-14T09:02:49.352Z,10.98
2023-05-14T09:07:47.145Z,10.80
2023-05-14T09:10:18.804Z,14.47
2023-05-14T09:14:29.191Z,13.43
2023-05-14T09:16:57.020Z,13.52
2023-05-14T09:19:24.826Z,13.95
2023-05-14T09:21:52.115Z,10.50
2023-05-14T09:24:26.148Z,14.45
2023-05-14T09:26:57.816Z,12.80
2023-05-14T09:29:28.861Z,10.18
2023-05-14T09:31:59.089Z,11.43
2023-05-14T09:34:30.652Z,10.80
2023-05-14T09:37:08.621Z,9.35
2023-05-14T09:39:38.239Z,8.55
2023-05-14T09:42:06.388Z,10.10
2023-05-14T09:44:36.271Z,10.15
2023-05-14T09:47:04.292Z,8.23
2023-05-14T09:49:31.627Z,7.30
2023-05-14T09:51:59.180Z,7.50
2023-05-14T09:54:27.572Z,8.15
2023-05-14T09:56:55.902Z,11.80
2023-05-14T09:59:23.605Z,10.90
2023-05-14T10:01:52.621Z,11.43
2023-05-14T10:04:22.995Z,9.57
2023-05-14T10:06:53.308Z,10.65
2023-05-14T10:09:26.495Z,8.15
2023-05-14T10:12:01.260Z,9.90
2023-05-14T10:14:49.557Z,7.60
2023-05-14T10:17:21.696Z,7.63
2023-05-14T10:19:57.326Z,8.55
2023-05-14T10:22:34.970Z,7.00
2023-05-14T10:25:05.084Z,6.15
2023-05-14T10:27:33.294Z,5.95
2023-05-14T10:30:06.076Z,8.13
2023-05-14T10:32:33.879Z,6.00
2023-05-14T10:35:02.280Z,6.85
2023-05-14T10:37:34.839Z,7.22
2023-05-14T10:40:07.120Z,8.00
2023-05-14T10:42:43.357Z,7.18
2023-05-14T10:45:16.482Z,6.70
2023-05-14T10:47:47.271Z,8.38
2023-05-14T10:50:18.636Z,6.22
2023-05-14T10:52:49.452Z,9.38
2023-05-14T10:55:17.893Z,8.93
2023-05-14T10:57:47.365Z,7.22
2023-05-14T11:00:25.997Z,9.68
2023-05-14T11:02:57.569Z,6.15
2023-05-14T11:05:27.455Z,7.18
2023-05-14T11:07:57.752Z,6.10
2023-05-14T11:10:35.386Z,7.38
2023-05-14T11:13:03.459Z,8.43
2023-05-14T11:15:32.094Z,8.00
2023-05-14T11:17:59.868Z,4.65
2023-05-14T11:20:27.791Z,6.10
2023-05-14T11:22:55.762Z,6.00
2023-05-14T11:25:29.224Z,6.60
2023-05-14T11:27:58.905Z,3.80
2023-05-14T11:30:29.342Z,7.60
2023-05-14T11:32:57.914Z,4.22
2023-05-14T11:35:27.272Z,6.13
2023-05-14T11:37:54.889Z,3.58
2023-05-14T11:40:22.770Z,5.60
2023-05-14T11:42:53.805Z,4.33
2023-05-14T11:45:30.126Z,5.25
2023-05-14T11:47:58.139Z,5.22
2023-05-14T11:50:26.320Z,3.85
2023-05-14T11:52:57.766Z,8.82
2023-05-14T11:55:25.663Z,6.57
2023-05-14T11:57:53.873Z,4.82
2023-05-14T12:00:23.063Z,4.28
2023-05-14T12:02:51.616Z,6.28
2023-05-14T12:05:19.897Z,3.85
2023-05-14T12:07:48.385Z,6.18
2023-05-14T12:10:17.853Z,4.65
2023-05-14T12:12:49.077Z,3.92
2023-05-14T12:15:17.414Z,5.00
2023-05-14T12:18:48.676Z,2.53
2023-05-14T12:22:14.010Z,4.70
2023-05-14T12:25:38.551Z,3.47
2023-05-14T12:29:03.629Z,5.15
2023-05-14T12:32:28.119Z,5.43
2023-05-14T12:34:55.818Z,4.60
2023-05-14T12:38:20.141Z,2.97
2023-05-14T12:40:47.995Z,3.60
2023-05-14T12:44:12.277Z,4.90
2023-05-14T12:46:40.044Z,3.63
2023-05-14T12:49:08.069Z,5.45
2023-05-14T12:55:58.768Z,3.42
2023-05-14T12:58:26.514Z,7.03
2023-05-14T13:00:54.185Z,3.67
2023-05-14T13:04:18.483Z,5.10
2023-05-14T13:06:46.148Z,3.28
2023-05-14T13:09:13.916Z,8.80
2023-05-14T13:11:41.653Z,2.85
2023-05-14T13:15:02.905Z,2.90
2023-05-14T13:17:32.912Z,4.38
2023-05-14T13:20:00.731Z,5.07
2023-05-14T13:22:28.821Z,7.17
2023-05-14T13:24:57.753Z,5.45
2023-05-14T13:27:26.084Z,5.28
2023-05-14T13:29:54.228Z,2.83
2023-05-14T13:32:22.083Z,4.07
2023-05-14T13:34:49.688Z,4.47
2023-05-14T13:37:17.539Z,3.92
2023-05-14T13:39:45.480Z,9.60
2023-05-14T13:42:13.390Z,7.23
2023-05-14T13:44:41.088Z,2.78
2023-05-14T13:47:08.790Z,2.83
2023-05-14T13:49:36.505Z,3.03
2023-05-14T13:52:04.493Z,3.03
2023-05-14T13:54:32.154Z,3.35
2023-05-14T13:56:59.855Z,2.53
2023-05-14T13:59:27.938Z,3.70
2023-05-14T14:01:55.669Z,2.88
2023-05-14T14:04:25.642Z,2.05
2023-05-14T14:06:53.246Z,3.15
2023-05-14T14:09:21.259Z,2.47
2023-05-14T14:11:49.547Z,1.75
2023-05-14T14:14:17.897Z,3.03
2023-05-14T14:16:45.525Z,1.92
2023-05-14T14:19:13.745Z,1.63
2023-05-14T14:21:46.874Z,2.38
2023-05-14T14:24:14.611Z,2.03
2023-05-14T14:26:42.666Z,2.08
2023-05-14T14:29:10.542Z,2.35
2023-05-14T14:31:38.765Z,2.55
2023-05-14T14:34:06.445Z,3.17
2023-05-14T14:36:34.037Z,4.03
2023-05-14T14:39:06.043Z,5.07
2023-05-14T14:41:33.813Z,2.30
2023-05-14T14:44:02.800Z,3.03
2023-05-14T14:46:30.499Z,3.88
2023-05-14T14:48:58.099Z,3.92
2023-05-14T14:51:26.115Z,4.75
2023-05-14T14:53:53.767Z,11.63
2023-05-14T14:56:22.040Z,7.47
2023-05-14T14:58:49.634Z,7.57
2023-05-14T15:01:17.373Z,7.57
2023-05-14T15:03:45.658Z,3.65
2023-05-14T15:06:13.338Z,8.77
2023-05-14T15:08:41.558Z,5.43
2023-05-14T15:11:09.440Z,5.80
2023-05-14T15:13:37.200Z,3.37
2023-05-14T15:16:04.925Z,7.53
2023-05-14T15:18:32.655Z,4.03
2023-05-14T15:21:00.423Z,5.32
2023-05-14T15:23:28.084Z,2.28
2023-05-14T15:25:55.887Z,4.47
2023-05-14T15:28:23.428Z,5.75
2023-05-14T15:30:51.132Z,4.63
2023-05-14T15:33:19.350Z,3.63
2023-05-14T15:35:47.258Z,3.60
2023-05-14T15:38:14.960Z,3.95
2023-05-14T15:40:42.538Z,4.57
2023-05-14T15:43:10.120Z,7.25
2023-05-14T15:45:37.793Z,6.40
2023-05-14T15:48:05.803Z,4.97
2023-05-14T15:50:33.464Z,3.57
2023-05-14T15:53:03.094Z,3.53
2023-05-14T15:55:30.760Z,3.78
2023-05-14T15:57:58.424Z,3.97
2023-05-14T16:00:26.309Z,5.53
2023-05-14T16:02:54.172Z,9.23
2023-05-14T16:05:21.997Z,4.45
2023-05-14T16:07:49.748Z,4.90
2023-05-14T16:10:21.659Z,6.03
2023-05-14T16:12:49.554Z,12.32
2023-05-14T16:15:17.376Z,10.75
2023-05-14T16:17:45.024Z,7.40
2023-05-14T16:20:13.009Z,14.23
2023-05-14T16:22:40.704Z,6.97
2023-05-14T16:25:08.790Z,7.78
2023-05-14T16:27:36.803Z,4.20
2023-05-14T16:30:05.657Z,3.80
2023-05-14T16:32:33.808Z,2.83
2023-05-14T16:35:02.701Z,5.90
2023-05-14T16:37:32.051Z,5.05
2023-05-14T16:39:59.653Z,5.60
2023-05-14T16:42:27.473Z,6.75
2023-05-14T16:44:55.061Z,6.63
2023-05-14T16:47:22.980Z,4.57
2023-05-14T16:49:50.655Z,5.68
2023-05-14T16:52:18.621Z,6.07
2023-05-14T16:54:46.429Z,4.32
2023-05-14T16:57:14.081Z,3.97
2023-05-14T16:59:41.723Z,5.00
2023-05-14T17:02:09.842Z,3.77
2023-05-14T17:04:40.936Z,3.78
2023-05-14T17:07:08.708Z,4.03
2023-05-14T17:09:36.300Z,4.93
2023-05-14T17:12:04.363Z,6.20
2023-05-14T17:14:32.068Z,2.90
2023-05-14T17:16:59.674Z,6.30
2023-05-14T17:19:27.302Z,3.22
2023-05-14T17:21:54.932Z,4.03
2023-05-14T17:24:22.585Z,8.50
2023-05-14T17:26:50.240Z,4.00
2023-05-14T17:29:17.921Z,3.35
2023-05-14T17:31:45.851Z,5.78
2023-05-14T17:34:13.677Z,3.28
2023-05-14T17:36:41.422Z,6.53
2023-05-14T17:39:09.311Z,4.88
2023-05-14T17:41:36.870Z,3.63
2023-05-14T17:44:04.681Z,4.45
2023-05-14T17:46:33.733Z,6.03
2023-05-14T17:51:29.254Z,6.22
2023-05-14T17:53:56.905Z,7.53
2023-05-14T17:56:24.651Z,3.75
2023-05-14T17:58:52.252Z,7.68
2023-05-14T18:01:19.931Z,5.13
2023-05-14T18:03:47.749Z,5.25
2023-05-14T18:06:15.748Z,6.13
2023-05-14T18:08:43.404Z,5.32
2023-05-14T18:11:11.158Z,5.03
2023-05-14T18:13:38.873Z,5.55
2023-05-14T18:16:06.705Z,4.43
2023-05-14T18:18:34.479Z,5.00
2023-05-14T18:21:02.573Z,4.78
2023-05-14T18:23:30.287Z,5.72
2023-05-14T18:25:57.968Z,4.78
2023-05-14T18:28:26.389Z,3.55
2023-05-14T18:30:54.038Z,5.15
2023-05-14T18:33:21.209Z,5.55
2023-05-14T18:35:48.725Z,8.18
2023-05-14T18:38:17.790Z,5.97
2023-05-14T18:40:46.698Z,5.10
2023-05-14T18:43:15.055Z,6.78
2023-05-14T18:45:43.096Z,10.00
2023-05-14T18:48:10.554Z,9.73
2023-05-14T18:50:39.507Z,6.43
2023-05-14T18:53:08.447Z,8.43
2023-05-14T18:55:38.801Z,4.53
2023-05-14T18:58:05.982Z,5.68
2023-05-14T19:00:33.223Z,5.75
2023-05-14T19:03:00.899Z,4.88
2023-05-14T19:05:28.551Z,5.13
2023-05-14T19:08:02.052Z,8.13
2023-05-14T19:10:30.023Z,5.95
2023-05-14T19:12:57.691Z,4.82
2023-05-14T19:15:25.275Z,4.32
2023-05-14T19:17:54.209Z,5.20
2023-05-14T19:20:21.504Z,6.88
2023-05-14T19:22:49.356Z,7.03
2023-05-14T19:25:20.192Z,5.32
2023-05-14T19:27:51.070Z,5.50
2023-05-14T19:30:20.696Z,6.38
2023-05-14T19:32:49.271Z,12.43
2023-05-14T19:35:16.578Z,8.43
2023-05-14T19:37:44.175Z,10.75
2023-05-14T19:40:12.138Z,5.43
2023-05-14T19:42:39.610Z,7.45
2023-05-14T19:45:07.683Z,9.73
2023-05-14T19:47:35.380Z,6.75
2023-05-14T19:50:02.857Z,11.18
2023-05-14T19:52:31.888Z,7.57
2023-05-14T19:54:59.148Z,8.02
2023-05-14T19:57:26.790Z,7.10
2023-05-14T19:59:54.070Z,7.70
2023-05-14T20:02:22.268Z,8.02
2023-05-14T20:04:49.831Z,11.32
2023-05-14T20:07:17.242Z,9.18
2023-05-14T20:09:45.894Z,9.15
2023-05-14T20:12:14.368Z,11.93
2023-05-14T20:14:41.882Z,7.75
2023-05-14T20:17:09.586Z,11.45
2023-05-14T20:19:36.823Z,9.50
2023-05-14T20:22:04.483Z,7.65
2023-05-14T20:24:32.365Z,7.97
2023-05-14T20:27:00.308Z,6.47
2023-05-14T20:29:27.981Z,9.05
2023-05-14T20:31:55.518Z,7.43
2023-05-14T20:34:22.840Z,11.82
2023-05-14T20:36:53.930Z,7.88
2023-05-14T20:39:21.376Z,8.07
2023-05-14T20:41:48.764Z,5.57
2023-05-14T20:44:16.804Z,6.65
2023-05-14T20:46:45.053Z,6.18
2023-05-14T20:49:12.862Z,5.80
2023-05-14T20:51:42.356Z,10.07
2023-05-14T20:57:02.896Z,8.65
2023-05-14T20:59:38.042Z,7.47
2023-05-14T21:02:06.035Z,7.35
2023-05-14T21:04:34.550Z,8.43
2023-05-14T21:07:02.757Z,7.00
2023-05-14T21:09:29.984Z,7.07
2023-05-14T21:12:08.008Z,5.88
2023-05-14T21:14:35.569Z,6.47
2023-05-14T21:17:03.473Z,7.47
2023-05-14T21:19:30.725Z,5.78
2023-05-14T21:21:59.725Z,9.65
2023-05-14T21:24:27.505Z,8.82
2023-05-14T21:26:54.857Z,6.55
2023-05-14T21:29:22.674Z,8.35
2023-05-14T21:31:50.248Z,7.85
2023-05-14T21:34:17.459Z,7.38
2023-05-14T21:36:48.005Z,5.72
2023-05-14T21:39:15.708Z,7.68
2023-05-14T21:41:42.982Z,7.82
2023-05-14T21:44:10.172Z,8.65
2023-05-14T21:46:37.533Z,7.80
2023-05-14T21:49:05.299Z,6.40
2023-05-14T21:51:33.030Z,6.85
2023-05-14T21:54:00.208Z,7.18
2023-05-14T21:56:27.413Z,8.77
2023-05-14T21:58:56.001Z,7.82
2023-05-14T22:01:23.504Z,11.13
2023-05-14T22:03:50.699Z,7.15
2023-05-14T22:06:18.015Z,9.80
2023-05-14T22:08:45.276Z,11.23
2023-05-14T22:11:12.504Z,7.38
2023-05-14T22:13:41.102Z,8.73
2023-05-14T22:16:13.790Z,8.00
2023-05-14T22:18:41.659Z,10.02
2023-05-14T22:21:11.404Z,12.02
2023-05-14T22:23:39.316Z,8.07
2023-05-14T22:26:06.685Z,12.65
2023-05-14T22:28:33.811Z,8.63
2023-05-14T22:31:00.989Z,11.15
2023-05-14T22:33:28.276Z,9.32
2023-05-14T22:35:55.478Z,11.18
2023-05-14T22:38:22.631Z,9.13
2023-05-14T22:40:49.763Z,9.55
2023-05-14T22:43:17.071Z,8.57
2023-05-14T22:45:44.520Z,11.25
2023-05-14T22:48:11.750Z,8.90
2023-05-14T22:51:57.067Z,10.32
2023-05-14T22:55:39.532Z,7.97
2023-05-14T22:58:07.497Z,11.73
2023-05-14T23:01:50.087Z,11.10
2023-05-14T23:04:17.451Z,7.45
2023-05-14T23:06:45.040Z,9.63
2023-05-14T23:09:12.451Z,9.23
2023-05-14T23:11:39.794Z,7.13
2023-05-14T23:14:07.001Z,9.98
2023-05-14T23:16:34.107Z,10.10
2023-05-14T23:20:16.782Z,9.95
2023-05-14T23:22:44.722Z,12.90
2023-05-14T23:26:27.628Z,11.48
2023-05-14T23:29:20.479Z,9.82
2023-05-14T23:31:50.283Z,9.50
2023-05-14T23:35:33.165Z,9.63
2023-05-14T23:39:16.495Z,9.48
2023-05-14T23:41:44.425Z,10.95
2023-05-14T23:44:11.777Z,11.63
2023-05-14T23:47:56.785Z,9.60
2023-05-14T23:50:25.017Z,8.10
2023-05-14T23:52:54.234Z,11.07
2023-05-14T23:55:22.563Z,11.55
2023-05-14T23:57:50.095Z,11.10
